Time;durP1;ratioP1;P1;durP2;ratioP2;P2;SDS_P1;SDS_P2;PMS_P1;PMS_P2;Temp;Humidity;BMP_temperature;BMP_pressure;BME280_temperature;BME280_humidity;BME280_pressure;Samples;Min_cycle;Max_cycle;Signal;HPM_P1;HPM_P2
2021/08/15 00:02:14;;;;;;;8.60;4.80;;;;;;;21.42;52.32;100469.19;5110131;28;20377;-22
2021/08/15 00:04:40;;;;;;;10.73;5.20;;;;;;;21.54;51.93;100453.38;5110356;28;20031;-22
2021/08/15 00:07:06;;;;;;;8.23;4.63;;;;;;;22.12;50.52;100476.25;5110418;28;20027;-22
2021/08/15 00:09:31;;;;;;;8.05;4.63;;;;;;;21.98;50.55;100471.47;5109883;28;20031;-22
2021/08/15 00:11:57;;;;;;;10.88;4.88;;;;;;;22.11;50.86;100480.06;5110162;28;20027;-22
2021/08/15 00:14:22;;;;;;;9.05;4.70;;;;;;;21.83;50.96;100464.28;5109953;28;20482;-21
2021/08/15 00:16:48;;;;;;;9.43;5.05;;;;;;;21.78;50.98;100466.22;5110809;28;20043;-22
2021/08/15 00:19:13;;;;;;;8.45;5.10;;;;;;;21.47;52.57;100480.00;5109074;28;20046;-22
2021/08/15 00:21:39;;;;;;;9.23;4.78;;;;;;;21.68;51.71;100480.69;5110065;28;20035;-22
2021/08/15 00:24:05;;;;;;;9.00;4.63;;;;;;;21.79;51.64;100478.72;5108741;28;20440;-22
2021/08/15 00:26:30;;;;;;;9.30;5.22;;;;;;;21.76;51.81;100474.66;5109850;28;20032;-22
2021/08/15 00:28:56;;;;;;;7.97;4.82;;;;;;;22.01;51.00;100481.78;5109766;28;20136;-22
2021/08/15 00:31:22;;;;;;;10.57;5.38;;;;;;;22.24;49.78;100463.13;5109865;28;20031;-22
2021/08/15 00:33:47;;;;;;;22.48;5.55;;;;;;;22.15;50.88;100472.94;5109658;28;20023;-22
2021/08/15 00:36:13;;;;;;;8.10;4.38;;;;;;;21.78;51.24;100482.50;5109383;28;20084;-22
2021/08/15 00:38:38;;;;;;;9.10;4.60;;;;;;;21.75;51.19;100474.94;5109693;28;20065;-22
2021/08/15 00:41:05;;;;;;;9.77;4.82;;;;;;;21.64;51.83;100464.16;5109617;28;20498;-22
2021/08/15 00:43:32;;;;;;;8.18;4.53;;;;;;;21.34;52.41;100456.22;5074718;28;20030;-22
2021/08/15 00:45:58;;;;;;;7.38;4.38;;;;;;;21.37;52.58;100461.06;5109516;28;20123;-22
2021/08/15 00:48:23;;;;;;;8.90;5.05;;;;;;;21.16;52.62;100458.47;5109533;28;20031;-22
2021/08/15 00:50:49;;;;;;;10.50;5.10;;;;;;;20.97;53.41;100457.50;5109231;28;20403;-22
2021/08/15 00:53:14;;;;;;;8.38;5.05;;;;;;;20.70;54.33;100458.69;5109335;28;20461;-22
2021/08/15 00:55:41;;;;;;;9.10;4.63;;;;;;;21.00;54.00;100451.50;5109730;28;20031;-21
2021/08/15 00:58:07;;;;;;;9.63;4.90;;;;;;;21.34;53.04;100454.28;5109187;28;20055;-22
2021/08/15 01:00:33;;;;;;;8.18;4.50;;;;;;;21.36;52.55;100437.75;5109161;28;20035;-22
2021/08/15 01:02:59;;;;;;;8.93;5.00;;;;;;;21.58;52.11;100440.06;5108935;28;20060;-22
2021/08/15 01:05:24;;;;;;;9.48;4.82;;;;;;;21.67;51.94;100439.16;5109519;28;20063;-22
2021/08/15 01:07:50;;;;;;;8.43;4.88;;;;;;;21.83;52.00;100452.63;5109114;28;20411;-21
2021/08/15 01:10:15;;;;;;;8.32;4.63;;;;;;;21.54;51.85;100431.66;5109059;28;20114;-22
2021/08/15 01:12:41;;;;;;;9.32;4.90;;;;;;;21.50;51.98;100427.09;5109257;28;20084;-22
2021/08/15 01:15:08;;;;;;;6.72;4.65;;;;;;;21.63;51.78;100432.66;5108901;28;20092;-22
2021/08/15 01:17:33;;;;;;;8.40;4.53;;;;;;;21.60;51.74;100446.03;5108736;28;20114;-22
2021/08/15 01:19:59;;;;;;;7.47;4.60;;;;;;;21.28;52.75;100442.66;5108795;28;20452;-22
2021/08/15 01:22:24;;;;;;;6.85;4.57;;;;;;;21.08;53.44;100442.78;5108706;28;20028;-22
2021/08/15 01:24:50;;;;;;;12.07;5.05;;;;;;;21.26;52.98;100455.69;5108934;28;20034;-22
2021/08/15 01:27:16;;;;;;;7.85;4.57;;;;;;;21.53;52.58;100442.81;5108668;28;20028;-22
2021/08/15 01:29:44;;;;;;;8.63;5.13;;;;;;;21.34;52.78;100456.22;5108596;28;20035;-21
2021/08/15 01:32:11;;;;;;;10.07;4.72;;;;;;;21.44;52.15;100439.88;5073704;28;20384;-22
2021/08/15 01:34:37;;;;;;;8.45;5.00;;;;;;;21.65;52.25;100457.63;5090284;28;20066;-22
2021/08/15 01:37:02;;;;;;;11.10;5.47;;;;;;;21.43;51.71;100454.53;5107956;28;20044;-22
2021/08/15 01:39:28;;;;;;;9.07;4.78;;;;;;;21.21;51.98;100453.03;5108476;28;20057;-21
2021/08/15 01:41:53;;;;;;;8.88;4.90;;;;;;;21.18;53.05;100459.00;5108300;28;20132;-22
2021/08/15 01:44:19;;;;;;;10.10;5.00;;;;;;;21.32;52.71;100463.81;5108534;28;20031;-22
2021/08/15 01:46:44;;;;;;;9.02;5.22;;;;;;;21.25;51.65;100470.38;5108288;28;20784;-22
2021/08/15 01:49:10;;;;;;;8.45;5.10;;;;;;;21.39;51.53;100477.88;5108317;28;20552;-22
2021/08/15 01:51:35;;;;;;;11.70;5.30;;;;;;;21.40;51.51;100471.34;5108597;28;20035;-22
2021/08/15 01:54:02;;;;;;;13.02;7.18;;;;;;;21.28;51.51;100467.06;5108381;28;20035;-22
2021/08/15 01:56:28;;;;;;;14.85;8.18;;;;;;;20.19;54.05;100458.81;5107875;28;20039;-22
2021/08/15 01:58:54;;;;;;;9.32;6.20;;;;;;;19.83;56.15;100465.03;5108373;28;20109;-22
2021/08/15 02:01:20;;;;;;;9.55;6.22;;;;;;;19.57;57.25;100475.00;5108084;28;20023;-22
2021/08/15 02:03:46;;;;;;;12.85;7.00;;;;;;;19.31;57.85;100466.06;5108182;28;20042;-22
2021/08/15 02:06:12;;;;;;;12.70;7.03;;;;;;;19.21;58.54;100466.84;5107873;28;20264;-22
2021/08/15 02:08:38;;;;;;;12.07;6.70;;;;;;;19.39;58.47;100467.41;5107830;28;20024;-22
2021/08/15 02:11:03;;;;;;;12.77;7.03;;;;;;;19.71;57.64;100474.50;5107932;28;20034;-22
2021/08/15 02:13:29;;;;;;;12.02;6.72;;;;;;;19.55;57.60;100466.34;5107906;28;20092;-22
2021/08/15 02:15:54;;;;;;;9.20;5.60;;;;;;;20.20;56.42;100477.47;5107655;28;20050;-22
2021/08/15 02:18:20;;;;;;;10.07;6.13;;;;;;;20.32;55.40;100471.75;5107617;28;20031;-22
2021/08/15 02:20:45;;;;;;;10.18;5.20;;;;;;;20.38;55.28;100467.16;5107727;28;20046;-22
2021/08/15 02:23:11;;;;;;;10.60;5.85;;;;;;;20.22;55.31;100455.53;5108048;28;20040;-22
2021/08/15 02:25:36;;;;;;;11.15;5.50;;;;;;;20.29;55.67;100464.19;5107810;28;20815;-22
2021/08/15 02:28:03;;;;;;;10.82;5.75;;;;;;;19.96;56.50;100454.75;5107456;28;20114;-22
2021/08/15 02:30:29;;;;;;;9.43;5.68;;;;;;;20.11;56.42;100470.19;5089390;28;20479;-22
2021/08/15 02:32:54;;;;;;;11.10;5.25;;;;;;;20.30;56.02;100460.41;5107610;28;20114;-22
2021/08/15 02:35:20;;;;;;;10.43;5.97;;;;;;;20.17;55.61;100466.38;5107915;28;20036;-22
2021/08/15 02:37:47;;;;;;;10.70;6.35;;;;;;;20.41;55.87;100470.13;5107778;28;20031;-22
2021/08/15 02:40:13;;;;;;;10.90;6.03;;;;;;;20.43;55.36;100459.84;5107299;28;20028;-22
2021/08/15 02:42:39;;;;;;;10.20;5.15;;;;;;;20.17;56.49;100450.13;5107770;28;20341;-22
2021/08/15 02:45:06;;;;;;;9.13;5.05;;;;;;;20.42;55.64;100466.31;5107535;28;20023;-22
2021/08/15 02:47:31;;;;;;;12.55;5.15;;;;;;;20.84;54.52;100459.72;5108047;28;20035;-22
2021/08/15 02:49:57;;;;;;;10.05;5.75;;;;;;;20.38;55.28;100456.31;5111643;28;20035;-22
2021/08/15 02:52:22;;;;;;;10.52;5.72;;;;;;;20.18;55.08;100465.28;5111307;28;20067;-22
2021/08/15 02:54:48;;;;;;;9.25;4.88;;;;;;;20.47;54.79;100466.31;5111551;28;20038;-22
2021/08/15 02:57:13;;;;;;;8.63;5.43;;;;;;;20.34;55.24;100464.19;5111521;28;20031;-22
2021/08/15 02:59:39;;;;;;;9.90;6.35;;;;;;;20.40;55.31;100468.50;5111252;28;20055;-22
2021/08/15 03:02:16;;;;;;;9.52;5.13;;;;;;;20.30;55.09;100460.41;5111356;28;20039;-22
2021/08/15 03:04:43;;;;;;;9.30;5.60;;;;;;;20.33;55.04;100475.28;5111899;28;20247;-22
2021/08/15 03:07:09;;;;;;;11.52;5.80;;;;;;;20.39;54.94;100468.75;5111585;28;20877;-22
2021/08/15 03:09:35;;;;;;;15.15;5.78;;;;;;;20.35;55.14;100487.47;5111569;28;20070;-22
2021/08/15 03:12:00;;;;;;;10.27;5.32;;;;;;;20.19;56.09;100483.97;5111337;28;20439;-22
2021/08/15 03:14:26;;;;;;;9.32;5.80;;;;;;;19.94;56.69;100479.41;5110993;28;20093;-22
2021/08/15 03:16:51;;;;;;;9.43;5.68;;;;;;;19.70;57.40;100456.63;5111205;28;20042;-22
2021/08/15 03:19:17;;;;;;;11.30;6.35;;;;;;;20.06;56.42;100479.94;5093428;28;20073;-21
2021/08/15 03:21:42;;;;;;;11.43;5.75;;;;;;;19.80;56.92;100473.72;5110859;28;20039;-22
2021/08/15 03:24:08;;;;;;;10.75;5.90;;;;;;;19.54;57.73;100459.31;5110877;28;20118;-23
2021/08/15 03:26:36;;;;;;;10.63;5.53;;;;;;;20.00;56.64;100478.31;5111016;28;20491;-22
2021/08/15 03:29:01;;;;;;;14.82;6.50;;;;;;;20.03;56.46;100477.75;5110779;28;20029;-22
2021/08/15 03:31:26;;;;;;;11.27;6.53;;;;;;;19.86;57.40;100477.25;5110936;28;20518;-22
2021/08/15 03:33:52;;;;;;;11.38;6.35;;;;;;;19.31;57.25;100482.28;5111158;28;20043;-22
2021/08/15 03:36:17;;;;;;;12.77;6.22;;;;;;;18.97;58.86;100481.91;5110916;28;20372;-22
2021/08/15 03:38:43;;;;;;;9.07;6.15;;;;;;;19.58;57.83;100465.81;5110894;28;20084;-22
2021/08/15 03:41:09;;;;;;;10.77;5.75;;;;;;;19.78;56.88;100473.16;5110717;28;20031;-22
2021/08/15 03:43:34;;;;;;;14.25;6.78;;;;;;;19.82;56.65;100478.88;5110720;28;20036;-21
2021/08/15 03:46:00;;;;;;;10.43;5.97;;;;;;;19.57;57.27;100464.19;5110947;28;20036;-22
2021/08/15 03:48:25;;;;;;;12.52;6.57;;;;;;;19.24;58.24;100477.09;5110326;28;20059;-22
2021/08/15 03:50:51;;;;;;;12.57;6.45;;;;;;;18.85;59.40;100485.63;5110710;28;20109;-22
2021/08/15 03:53:16;;;;;;;10.45;5.78;;;;;;;19.20;58.59;100491.44;5110796;28;20035;-22
2021/08/15 03:55:42;;;;;;;15.48;6.15;;;;;;;19.50;58.10;100489.88;5110776;28;20115;-22
2021/08/15 03:58:07;;;;;;;11.13;6.70;;;;;;;19.89;57.01;100492.91;5109580;28;20059;-21
2021/08/15 04:00:33;;;;;;;14.75;7.68;;;;;;;19.51;57.35;100475.25;5110214;28;20035;-22
2021/08/15 04:02:58;;;;;;;11.48;6.80;;;;;;;19.24;58.99;100496.03;5110331;28;20024;-22
2021/08/15 04:05:24;;;;;;;34.85;8.77;;;;;;;18.88;60.20;100495.09;5110304;28;20035;-22
2021/08/15 04:07:49;;;;;;;14.95;6.40;;;;;;;18.96;58.61;100491.06;5110576;28;20032;-22
2021/08/15 04:10:15;;;;;;;11.25;6.47;;;;;;;18.80;58.98;100503.72;5092122;28;20024;-21
2021/08/15 04:12:40;;;;;;;14.90;6.10;;;;;;;19.47;58.36;100502.03;5110412;28;20084;-22
2021/08/15 04:15:07;;;;;;;12.00;5.82;;;;;;;19.42;56.97;100493.91;5110279;28;20024;-22
2021/08/15 04:17:32;;;;;;;12.20;7.25;;;;;;;19.68;57.50;100492.88;5110278;28;20027;-22
2021/08/15 04:19:57;;;;;;;11.50;6.00;;;;;;;20.26;55.18;100481.78;5110144;28;20027;-22
2021/08/15 04:22:23;;;;;;;12.73;6.38;;;;;;;20.10;55.66;100488.31;5110034;28;20096;-22
2021/08/15 04:24:48;;;;;;;9.65;6.50;;;;;;;20.52;55.28;100494.50;5109979;28;20031;-21
2021/08/15 04:27:14;;;;;;;11.18;6.32;;;;;;;20.32;55.77;100503.47;5109863;28;20080;-22
2021/08/15 04:29:39;;;;;;;13.73;8.10;;;;;;;20.41;55.11;100494.50;5109807;28;20030;-22
2021/08/15 04:32:06;;;;;;;15.80;9.63;;;;;;;20.80;54.74;100507.44;5109749;28;20076;-22
2021/08/15 04:34:32;;;;;;;12.82;7.70;;;;;;;20.75;54.76;100510.16;5109623;28;20073;-22
2021/08/15 04:36:58;;;;;;;12.45;6.85;;;;;;;20.62;55.13;100499.91;5109641;28;20040;-22
2021/08/15 04:39:23;;;;;;;9.73;7.03;;;;;;;20.35;56.14;100497.47;5109678;28;20023;-22
2021/08/15 04:41:49;;;;;;;12.10;6.75;;;;;;;20.30;56.23;100498.31;5109568;28;20032;-22
2021/08/15 04:44:14;;;;;;;10.93;7.30;;;;;;;20.14;56.81;100494.00;5109318;28;20088;-22
2021/08/15 04:46:40;;;;;;;10.27;7.65;;;;;;;20.23;56.57;100497.78;5109872;28;20043;-22
2021/08/15 04:49:05;;;;;;;12.55;7.25;;;;;;;20.04;57.27;100511.06;5109483;28;20763;-22
2021/08/15 04:51:30;;;;;;;12.77;7.95;;;;;;;20.01;56.95;100507.00;5109409;28;20035;-22
2021/08/15 04:53:56;;;;;;;12.88;7.60;;;;;;;19.92;57.39;100496.97;5109446;28;20036;-22
2021/08/15 04:56:21;;;;;;;12.35;7.05;;;;;;;20.26;57.13;100498.03;5109162;28;20032;-21
2021/08/15 04:58:47;;;;;;;9.90;6.88;;;;;;;20.26;56.80;100498.03;5109255;28;20055;-22
2021/08/15 05:01:12;;;;;;;11.50;7.53;;;;;;;20.06;57.72;100501.59;5109064;28;20031;-23
2021/08/15 05:03:38;;;;;;;11.73;7.10;;;;;;;20.24;57.54;100483.16;5109077;28;20615;-22
2021/08/15 05:06:03;;;;;;;12.40;6.93;;;;;;;20.56;56.84;100495.56;5108778;28;20035;-22
2021/08/15 05:08:30;;;;;;;10.10;7.35;;;;;;;20.58;56.37;100498.81;5108929;28;20035;-22
2021/08/15 05:10:58;;;;;;;11.18;6.63;;;;;;;20.77;55.50;100499.84;5108329;28;20036;-22
2021/08/15 05:13:25;;;;;;;10.95;7.30;;;;;;;20.85;55.67;100493.84;5108888;28;20418;-22
2021/08/15 05:15:50;;;;;;;11.90;7.43;;;;;;;20.94;55.72;100491.38;5108988;28;20035;-22
2021/08/15 05:18:15;;;;;;;12.45;7.20;;;;;;;20.89;55.46;100488.69;5108729;28;20442;-21
2021/08/15 05:20:41;;;;;;;12.70;6.78;;;;;;;21.08;55.20;100486.16;5108880;28;20024;-22
2021/08/15 05:23:06;;;;;;;11.98;6.90;;;;;;;21.55;54.11;100484.03;5108890;28;20032;-22
2021/08/15 05:25:32;;;;;;;12.63;6.25;;;;;;;21.63;53.38;100486.94;5108873;28;20028;-22
2021/08/15 05:27:57;;;;;;;9.68;6.18;;;;;;;21.77;53.16;100486.31;5108987;28;20832;-22
2021/08/15 05:30:23;;;;;;;13.90;6.22;;;;;;;22.11;52.73;100480.06;5108394;28;20088;-22
2021/08/15 05:32:49;;;;;;;10.48;6.05;;;;;;;21.80;52.84;100492.00;5108616;28;20410;-22
2021/08/15 05:35:14;;;;;;;12.48;5.70;;;;;;;21.97;52.90;100494.31;5108428;28;20035;-22
2021/08/15 05:37:40;;;;;;;11.35;6.07;;;;;;;22.31;51.94;100490.75;5108492;28;20058;-22
2021/08/15 05:40:06;;;;;;;9.48;5.95;;;;;;;22.35;52.02;100493.72;5108424;28;20028;-22
2021/08/15 05:42:32;;;;;;;8.82;5.60;;;;;;;22.65;51.28;100492.59;5108052;28;20122;-21
2021/08/15 05:44:57;;;;;;;10.02;6.05;;;;;;;22.56;51.60;100499.75;5108388;28;20388;-22
2021/08/15 05:47:23;;;;;;;10.15;5.60;;;;;;;22.79;51.08;100506.28;5108144;28;20043;-22
2021/08/15 05:49:48;;;;;;;14.70;5.68;;;;;;;22.71;51.55;100499.59;5108017;28;20024;-22
2021/08/15 05:52:14;;;;;;;9.90;5.47;;;;;;;22.67;50.64;100499.34;5108043;28;20415;-22
2021/08/15 05:54:39;;;;;;;12.05;5.78;;;;;;;22.83;50.56;100501.91;5089765;28;20076;-22
2021/08/15 05:57:05;;;;;;;11.00;6.05;;;;;;;22.49;51.11;100488.41;5108136;28;20044;-22
2021/08/15 05:59:30;;;;;;;8.90;5.70;;;;;;;22.67;51.59;100503.97;5108069;28;20128;-21
2021/08/15 06:01:56;;;;;;;8.38;5.60;;;;;;;22.67;51.31;100506.69;5107919;28;20024;-22
2021/08/15 06:04:21;;;;;;;10.00;5.45;;;;;;;23.02;50.26;100499.25;5107953;28;20027;-22
2021/08/15 06:06:47;;;;;;;12.05;5.63;;;;;;;22.82;50.47;100498.38;5108041;28;20115;-21
2021/08/15 06:09:13;;;;;;;11.98;5.47;;;;;;;22.86;50.77;100483.09;5107862;28;20035;-22
2021/08/15 06:11:38;;;;;;;11.10;6.03;;;;;;;22.99;50.42;100495.16;5107816;28;20106;-22
2021/08/15 06:14:04;;;;;;;8.48;5.50;;;;;;;22.90;51.12;100479.78;5107668;28;20027;-21
2021/08/15 06:16:29;;;;;;;15.25;5.72;;;;;;;23.28;50.07;100497.00;5108200;28;20828;-22
2021/08/15 06:18:55;;;;;;;9.50;6.22;;;;;;;23.44;49.81;100494.88;5107587;28;20039;-22
2021/08/15 06:21:20;;;;;;;8.68;5.35;;;;;;;23.37;49.85;100472.63;5107669;28;20020;-21
2021/08/15 06:23:47;;;;;;;15.40;5.70;;;;;;;23.55;50.54;100484.63;5107566;28;20410;-21
2021/08/15 06:26:13;;;;;;;14.77;6.93;;;;;;;23.86;49.23;100484.97;5107367;28;20028;-22
2021/08/15 06:28:38;;;;;;;8.75;5.72;;;;;;;23.81;49.21;100483.16;5107795;28;20031;-22
2021/08/15 06:31:03;;;;;;;9.25;6.00;;;;;;;23.74;49.06;100481.88;5107576;28;20031;-22
2021/08/15 06:33:29;;;;;;;9.25;5.57;;;;;;;23.79;49.11;100490.00;5107924;28;20036;-22
2021/08/15 06:35:54;;;;;;;11.50;6.45;;;;;;;23.82;49.05;100483.94;5107619;28;20479;-22
2021/08/15 06:38:20;;;;;;;11.02;6.10;;;;;;;23.77;48.36;100460.34;5107568;28;20036;-21
2021/08/15 06:40:45;;;;;;;8.90;5.78;;;;;;;23.98;48.41;100470.91;5107685;28;20027;-22
2021/08/15 06:43:11;;;;;;;9.93;6.63;;;;;;;23.89;47.51;100465.34;5107581;28;20407;-22
2021/08/15 06:45:37;;;;;;;11.25;6.30;;;;;;;24.01;48.00;100473.84;5107595;28;20039;-22
2021/08/15 06:48:05;;;;;;;9.85;6.00;;;;;;;23.83;47.34;100472.78;5107378;28;20074;-22
2021/08/15 06:50:30;;;;;;;8.93;5.90;;;;;;;23.82;47.38;100462.16;5107049;28;20070;-22
2021/08/15 06:52:56;;;;;;;10.52;6.63;;;;;;;24.28;47.06;100477.72;5107356;28;20476;-22
2021/08/15 06:55:21;;;;;;;12.70;6.15;;;;;;;24.35;46.76;100475.41;5107666;28;20110;-22
2021/08/15 06:57:47;;;;;;;13.57;6.90;;;;;;;24.53;45.33;100471.00;5107305;28;20083;-21
2021/08/15 07:00:13;;;;;;;13.68;7.18;;;;;;;24.43;44.53;100450.16;5107471;28;20039;-21
2021/08/15 07:02:39;;;;;;;12.35;7.10;;;;;;;24.49;44.76;100469.97;5107206;28;20065;-21
2021/08/15 07:05:08;;;;;;;11.10;6.93;;;;;;;24.60;44.76;100457.78;5107354;28;20024;-22
2021/08/15 07:07:34;;;;;;;9.60;7.00;;;;;;;25.03;45.21;100448.44;5107099;28;20036;-21
2021/08/15 07:09:59;;;;;;;11.13;7.05;;;;;;;24.58;43.77;100451.84;5088960;28;20088;-22
2021/08/15 07:12:25;;;;;;;10.27;7.15;;;;;;;24.41;44.37;100460.56;5107188;28;20054;-21
2021/08/15 07:14:50;;;;;;;11.60;8.00;;;;;;;25.10;43.14;100458.94;5107375;28;20396;-22
2021/08/15 07:17:16;;;;;;;11.05;7.32;;;;;;;25.36;43.14;100465.47;5107210;28;20039;-22
2021/08/15 07:19:41;;;;;;;11.77;7.70;;;;;;;25.09;43.21;100458.13;5107287;28;20035;-22
2021/08/15 07:22:07;;;;;;;13.00;8.45;;;;;;;25.21;42.33;100458.44;5107218;28;20100;-22
2021/08/15 07:24:32;;;;;;;15.90;8.55;;;;;;;25.26;42.19;100455.56;5107174;28;20510;-22
2021/08/15 07:26:58;;;;;;;13.20;8.25;;;;;;;25.46;42.19;100451.56;5107470;28;20407;-22
2021/08/15 07:29:24;;;;;;;13.15;8.07;;;;;;;25.45;42.07;100451.88;5107224;28;20838;-22
2021/08/15 07:31:49;;;;;;;11.02;8.68;;;;;;;25.73;42.29;100443.56;5107093;28;20027;-22
2021/08/15 07:34:14;;;;;;;11.27;8.45;;;;;;;26.06;40.93;100439.44;5108374;28;20096;-22
2021/08/15 07:36:40;;;;;;;10.68;8.38;;;;;;;25.90;40.40;100454.63;5111057;28;20031;-22
2021/08/15 07:39:05;;;;;;;12.40;8.00;;;;;;;26.03;40.32;100451.00;5111103;28;20078;-22
2021/08/15 07:41:31;;;;;;;13.40;8.15;;;;;;;26.14;41.58;100446.06;5110795;28;20023;-22
2021/08/15 07:43:56;;;;;;;13.05;8.35;;;;;;;26.09;41.40;100440.72;5110788;28;20032;-22
2021/08/15 07:46:22;;;;;;;14.00;8.40;;;;;;;26.23;40.54;100448.84;5110724;28;20512;-22
2021/08/15 07:48:47;;;;;;;13.10;8.18;;;;;;;26.49;42.03;100448.16;5110601;28;20045;-22
2021/08/15 07:51:13;;;;;;;12.18;8.32;;;;;;;26.89;40.44;100440.72;5110603;28;20035;-22
2021/08/15 07:53:38;;;;;;;12.13;8.10;;;;;;;27.23;39.30;100453.66;5110541;28;20032;-22
2021/08/15 07:56:04;;;;;;;16.80;9.13;;;;;;;27.09;39.17;100443.94;5110352;28;20028;-22
2021/08/15 07:58:29;;;;;;;13.98;8.98;;;;;;;27.13;38.72;100437.50;5110420;28;20075;-21
2021/08/15 08:00:56;;;;;;;13.20;9.10;;;;;;;26.83;38.25;100418.16;5110453;28;20044;-22
2021/08/15 08:03:21;;;;;;;12.55;8.27;;;;;;;26.91;40.21;100435.75;5092359;28;20028;-22
2021/08/15 08:05:48;;;;;;;11.20;8.35;;;;;;;26.86;38.16;100439.41;5110285;28;20507;-22
2021/08/15 08:08:13;;;;;;;12.23;8.63;;;;;;;27.34;37.35;100429.50;5109858;28;20040;-22
2021/08/15 08:10:39;;;;;;;12.90;8.77;;;;;;;27.54;37.12;100441.72;5110364;28;20028;-22
2021/08/15 08:13:08;;;;;;;12.88;8.70;;;;;;;27.35;36.79;100427.56;5110221;28;20032;-22
2021/08/15 08:15:34;;;;;;;17.40;8.68;;;;;;;27.58;38.10;100426.25;5109941;28;20043;-22
2021/08/15 08:18:00;;;;;;;11.55;8.48;;;;;;;27.73;37.45;100433.16;5110074;28;20070;-22
2021/08/15 08:20:26;;;;;;;11.25;8.43;;;;;;;27.98;36.68;100428.75;5109835;28;20019;-22
2021/08/15 08:22:52;;;;;;;9.98;7.88;;;;;;;28.15;36.75;100427.88;5110047;28;20483;-22
2021/08/15 08:25:17;;;;;;;13.20;8.07;;;;;;;28.07;36.30;100419.69;5110370;28;20042;-22
2021/08/15 08:27:44;;;;;;;11.30;7.90;;;;;;;28.36;35.73;100422.50;5109799;28;20042;-22
2021/08/15 08:30:10;;;;;;;13.85;8.30;;;;;;;27.90;35.89;100404.94;5109354;28;20024;-22
2021/08/15 08:32:37;;;;;;;13.07;7.45;;;;;;;28.11;36.79;100410.47;5110025;28;20081;-22
2021/08/15 08:35:03;;;;;;;11.65;8.18;;;;;;;28.52;35.66;100409.03;5109747;28;20034;-22
2021/08/15 08:37:28;;;;;;;10.95;7.90;;;;;;;28.79;35.56;100406.91;5109660;28;20028;-22
2021/08/15 08:39:59;;;;;;;11.35;8.18;;;;;;;28.84;34.51;100407.53;5109819;28;20031;-22
2021/08/15 08:42:24;;;;;;;10.02;7.50;;;;;;;29.19;34.07;100412.78;5109254;28;20545;-22
2021/08/15 08:44:50;;;;;;;11.38;7.72;;;;;;;29.03;33.92;100404.34;5090820;28;20028;-22
2021/08/15 08:47:15;;;;;;;9.85;7.45;;;;;;;29.13;34.60;100399.59;5074315;28;20039;-22
2021/08/15 08:49:41;;;;;;;12.93;8.02;;;;;;;28.90;33.86;100385.38;5109325;28;20023;-22
2021/08/15 08:52:07;;;;;;;11.98;7.15;;;;;;;29.33;34.19;100397.97;5109144;28;20031;-22
2021/08/15 08:54:34;;;;;;;11.98;7.57;;;;;;;29.40;33.68;100381.72;5109511;28;20072;-22
2021/08/15 08:57:06;;;;;;;12.30;8.25;;;;;;;29.50;31.56;100391.50;5109481;28;20039;-22
2021/08/15 08:59:35;;;;;;;10.95;6.95;;;;;;;29.96;32.34;100387.63;5109301;28;20172;-22
2021/08/15 09:02:00;;;;;;;10.48;6.65;;;;;;;30.40;32.25;100385.16;5109518;28;20023;-22
2021/08/15 09:04:26;;;;;;;10.63;7.40;;;;;;;30.54;30.68;100390.28;5109227;28;20106;-22
2021/08/15 09:06:53;;;;;;;11.40;6.55;;;;;;;30.26;30.80;100376.41;5091148;28;20053;-22
2021/08/15 09:09:20;;;;;;;10.23;7.35;;;;;;;30.14;31.35;100381.88;5090989;28;20019;-22
2021/08/15 09:11:49;;;;;;;11.33;7.63;;;;;;;30.27;31.34;100378.00;5109116;28;20611;-22
2021/08/15 09:14:19;;;;;;;11.40;6.22;;;;;;;30.23;30.95;100369.63;5108538;28;20540;-22
2021/08/15 09:16:58;;;;;;;9.65;6.43;;;;;;;30.86;29.61;100356.59;5109290;28;20020;-22
2021/08/15 09:19:33;;;;;;;9.52;5.82;;;;;;;30.70;29.73;100365.59;5109196;28;20046;-22
2021/08/15 09:22:15;;;;;;;9.23;6.10;;;;;;;30.21;29.69;100371.13;5109072;28;20038;-22
2021/08/15 09:24:56;;;;;;;8.23;6.18;;;;;;;30.41;29.50;100370.22;5108739;28;20031;-22
2021/08/15 09:27:28;;;;;;;8.95;5.68;;;;;;;30.37;29.01;100358.31;5108732;28;20027;-22
2021/08/15 09:30:06;;;;;;;7.68;5.78;;;;;;;30.87;28.22;100363.72;5108598;28;20027;-22
2021/08/15 09:32:32;;;;;;;8.15;5.07;;;;;;;30.82;28.22;100345.50;5108398;28;20025;-22
2021/08/15 09:34:58;;;;;;;10.48;5.85;;;;;;;31.23;28.64;100363.59;5108753;28;20037;-22
2021/08/15 09:37:28;;;;;;;8.45;5.78;;;;;;;31.42;28.50;100340.06;5108769;28;20032;-23
2021/08/15 09:39:53;;;;;;;9.63;5.88;;;;;;;31.93;27.54;100348.47;5108665;28;20719;-22
2021/08/15 09:42:48;;;;;;;13.27;6.40;;;;;;;32.31;27.13;100354.53;5090970;28;20034;-22
2021/08/15 09:45:14;;;;;;;14.38;5.50;;;;;;;32.65;28.09;100349.38;5018753;28;20580;-22
2021/08/15 09:47:40;;;;;;;10.80;5.35;;;;;;;32.66;28.58;100337.19;5108551;28;20716;-22
2021/08/15 09:50:20;;;;;;;7.68;5.70;;;;;;;32.15;28.90;100341.56;5108357;28;20027;-22
2021/08/15 09:52:45;;;;;;;12.38;6.03;;;;;;;32.37;28.40;100342.84;5108417;28;20513;-22
2021/08/15 09:55:11;;;;;;;9.48;5.35;;;;;;;31.90;28.01;100338.19;5089935;28;20035;-22
2021/08/15 09:57:37;;;;;;;8.43;5.63;;;;;;;31.88;28.17;100323.94;5089470;28;20126;-22
2021/08/15 10:00:03;;;;;;;7.63;5.50;;;;;;;32.06;26.57;100318.06;5107799;28;20039;-22
2021/08/15 10:02:29;;;;;;;9.33;5.70;;;;;;;32.49;27.02;100319.03;5108199;28;20034;-22
2021/08/15 10:04:56;;;;;;;9.02;5.43;;;;;;;32.09;27.20;100320.13;5107851;28;20273;-22
2021/08/15 10:07:24;;;;;;;12.60;5.80;;;;;;;31.48;28.25;100300.09;5107869;28;20042;-22
2021/08/15 10:09:50;;;;;;;9.27;5.90;;;;;;;31.94;28.34;100302.41;5107812;28;20019;-22
2021/08/15 10:12:15;;;;;;;7.13;5.32;;;;;;;31.88;28.42;100293.59;5072537;28;20510;-22
2021/08/15 10:14:40;;;;;;;7.75;5.30;;;;;;;32.50;27.46;100310.38;5107957;28;20031;-22
2021/08/15 10:17:10;;;;;;;8.68;5.72;;;;;;;32.61;26.46;100291.31;5107743;28;20038;-22
2021/08/15 10:19:37;;;;;;;7.60;5.40;;;;;;;33.17;26.12;100296.38;5090172;28;20112;-22
2021/08/15 10:22:03;;;;;;;8.98;5.65;;;;;;;32.59;27.70;100296.41;5107668;28;20059;-22
2021/08/15 10:24:53;;;;;;;6.82;5.13;;;;;;;32.27;28.31;100293.72;5107842;28;20028;-22
2021/08/15 10:27:41;;;;;;;11.13;5.65;;;;;;;32.93;25.76;100289.19;5107988;28;20114;-22
2021/08/15 10:30:23;;;;;;;9.55;5.55;;;;;;;33.75;25.91;100280.78;5107444;28;20027;-22
2021/08/15 10:32:55;;;;;;;7.85;5.55;;;;;;;32.29;26.50;100274.84;5107835;28;20200;-22
2021/08/15 10:35:24;;;;;;;8.75;5.68;;;;;;;32.63;27.03;100253.09;5107711;28;20107;-22
2021/08/15 10:37:55;;;;;;;10.02;5.90;;;;;;;32.46;26.33;100270.06;5107462;28;20035;-22
2021/08/15 10:40:38;;;;;;;9.68;5.45;;;;;;;32.35;27.09;100264.34;5107293;28;20103;-21
2021/08/15 10:43:10;;;;;;;8.13;5.55;;;;;;;33.33;25.16;100257.59;5104802;28;20066;-22
2021/08/15 10:45:36;;;;;;;9.63;5.45;;;;;;;33.08;26.21;100246.09;5102484;28;20555;-22
2021/08/15 10:48:04;;;;;;;9.18;5.82;;;;;;;32.55;28.41;100262.41;5107610;28;20092;-22
2021/08/15 10:50:48;;;;;;;8.70;5.43;;;;;;;32.84;26.40;100247.22;5107141;28;20483;-22
2021/08/15 10:53:26;;;;;;;7.40;4.97;;;;;;;33.15;26.83;100246.22;5099450;28;20031;-22
2021/08/15 10:56:02;;;;;;;9.73;5.25;;;;;;;33.47;26.92;100234.91;5087129;28;20030;-22
2021/08/15 10:58:42;;;;;;;8.32;5.13;;;;;;;33.82;25.95;100231.94;5068974;28;20462;-22
2021/08/15 11:01:11;;;;;;;8.60;5.30;;;;;;;34.27;25.45;100234.94;5086807;28;20028;-22
2021/08/15 11:03:56;;;;;;;8.95;5.00;;;;;;;33.87;26.40;100228.03;5087186;28;20143;-22
2021/08/15 11:06:31;;;;;;;7.53;4.97;;;;;;;33.46;26.80;100222.25;5086177;28;20093;-22
2021/08/15 11:09:01;;;;;;;7.85;5.00;;;;;;;33.32;26.33;100222.03;5088222;28;20084;-22
2021/08/15 11:11:27;;;;;;;6.93;5.15;;;;;;;32.55;27.02;100226.50;5090841;28;20106;-22
2021/08/15 11:14:17;;;;;;;7.65;4.82;;;;;;;34.02;25.90;100218.78;5090833;28;20092;-22
2021/08/15 11:16:47;;;;;;;9.07;5.18;;;;;;;34.11;26.13;100209.41;5090829;28;20384;-22
2021/08/15 11:19:15;;;;;;;7.97;5.28;;;;;;;34.17;26.26;100210.69;5091051;28;20040;-22